Back to top

Buffalo, WY weather

Johnson County Airport, Buffalo, WY: 12/11/2019 16:53
Visibility10 statute mileslots of clouds
View 7-Day Forecast
Area Summary
Sky/CloudsBroken at 9000ft, Solid Overcast at 11000ft
Weather [last 24 hours]None
Pressure29.85 in.Hg (1011 hPa)
3-hour Pressure Tendency0.03543 in.Hg (1.2 hPa) Increasing, then decreasing
Dew Point17.1 °F (-8.3 °C)
Relative Humidity45.7 %
Temperature36 °F (2.2 °C)red thermometer
Reading TimeMinimum to Maximum Temperature
6-hr ending 12/11@16:5332 °F to 41 °F (0 °C to 5 °C)
6-hr ending 12/11@10:5323 °F to 39 °F (-5 °C to 3.9 °C)
6-hr ending 12/11@04:5325 °F to 36 °F (-3.9 °C to 2.2 °C)
6-hr ending 12/10@22:5325 °F to 34 °F (-3.9 °C to 1.1 °C)
24-hr ending 12/10@23:5318 °F to 37 °F (-7.8 °C to 2.8 °C)
Wind0 MPH (0 KT) green arrow pointing at 0 degrees
Wind FromNorth (000 Degrees)
Twilight Begins06:58Sunshine Yesterday
Sunrise07:31N/A
Sunset16:29
Twilight Ends17:02
METARKBYG 112353Z AUTO 00000KT 10SM BKN090 OVC110 02/M08 A2985 RMK AO2 SLP129 T00221083 10050 20000 50012
Tags: